logo
Search for airport 
image banner adimage banner adimage banner ad
image banner ad

VYKI - Kanti

Located in Kanti, Myanmar

ICAO - VYKI, IATA - KHM

Data provided by Airmate  

General information

Coordinates: N25°59'19" E95°40'29"
Elevation is 672 feet MSL.
 
View others Airports in Sagaing Division

Operational data

Special qualification required
Current time UTC:
Current local time:
Weather at : - ( 0 km )
METAR: SARI 171308Z 19004KT 130V260 0600 R31/P2000N BCFG OVC002 14/14 Q1027
View NOTAMs / SUP AIP / TFR affecting this airport [VIEW]
Communications frequencies: [VIEW]

Runways:

RWY identifierQFULength (ft)Width (ft)SurfaceLDA (ft)
0335°600198UNK
21215°600198UNK

Airport contact information

Address: Kanti Myanmar

Satellite view of VYKI